createdAt,value
2023-04-25T00:01:07.741Z,2.70
2023-04-25T00:03:37.751Z,2.75
2023-04-25T00:06:06.232Z,2.83
2023-04-25T00:08:34.792Z,2.65
2023-04-25T00:11:03.080Z,2.03
2023-04-25T00:13:31.393Z,2.08
2023-04-25T00:15:59.599Z,1.73
2023-04-25T00:18:29.748Z,1.85
2023-04-25T00:20:59.458Z,1.55
2023-04-25T00:23:27.651Z,1.55
2023-04-25T00:25:55.827Z,1.80
2023-04-25T00:28:23.978Z,1.75
2023-04-25T00:30:52.409Z,1.77
2023-04-25T00:33:20.765Z,1.60
2023-04-25T00:35:48.939Z,2.28
2023-04-25T00:38:18.585Z,2.22
2023-04-25T00:40:46.758Z,2.00
2023-04-25T00:43:14.995Z,2.70
2023-04-25T00:45:45.692Z,2.60
2023-04-25T00:48:16.313Z,2.60
2023-04-25T00:50:50.661Z,2.40
2023-04-25T00:53:20.230Z,3.10
2023-04-25T00:55:48.582Z,3.28
2023-04-25T00:58:16.860Z,2.72
2023-04-25T01:00:46.350Z,2.92
2023-04-25T01:03:15.013Z,2.35
2023-04-25T01:05:43.614Z,2.88
2023-04-25T01:08:12.210Z,3.10
2023-04-25T01:10:41.887Z,3.00
2023-04-25T01:13:10.414Z,2.97
2023-04-25T01:15:38.869Z,3.08
2023-04-25T01:18:08.049Z,3.33
2023-04-25T01:20:36.406Z,3.45
2023-04-25T01:23:06.193Z,2.83
2023-04-25T01:25:34.432Z,3.00
2023-04-25T01:28:02.722Z,2.88
2023-04-25T01:30:31.668Z,2.78
2023-04-25T01:33:01.263Z,2.83
2023-04-25T01:35:29.531Z,2.55
2023-04-25T01:37:57.838Z,2.80
2023-04-25T01:40:28.910Z,3.00
2023-04-25T01:42:57.304Z,2.70
2023-04-25T01:45:25.596Z,2.88
2023-04-25T01:47:53.898Z,3.10
2023-04-25T01:50:22.438Z,3.03
2023-04-25T01:52:51.078Z,2.65
2023-04-25T01:55:19.540Z,3.60
2023-04-25T01:57:49.261Z,3.38
2023-04-25T02:00:17.850Z,3.50
2023-04-25T02:02:46.231Z,3.72
2023-04-25T02:05:14.505Z,3.55
2023-04-25T02:07:42.806Z,3.42
2023-04-25T02:10:12.083Z,2.97
2023-04-25T02:12:40.333Z,3.58
2023-04-25T02:15:10.919Z,2.90
2023-04-25T02:17:40.278Z,3.40
2023-04-25T02:20:09.492Z,2.97
2023-04-25T02:22:37.799Z,3.22
2023-04-25T02:25:06.809Z,2.85
2023-04-25T02:27:35.033Z,2.65
2023-04-25T02:30:04.038Z,2.60
2023-04-25T02:32:35.394Z,2.30
2023-04-25T02:35:04.970Z,2.47
2023-04-25T02:37:33.568Z,2.60
2023-04-25T02:40:01.958Z,2.63
2023-04-25T02:42:30.152Z,3.13
2023-04-25T02:44:58.383Z,2.50
2023-04-25T02:47:26.825Z,2.78
2023-04-25T02:49:56.603Z,2.97
2023-04-25T02:52:24.829Z,2.58
2023-04-25T02:54:53.078Z,2.65
2023-04-25T02:57:21.288Z,2.65
2023-04-25T02:59:49.567Z,2.63
2023-04-25T03:02:17.846Z,3.00
2023-04-25T03:04:46.186Z,3.00
2023-04-25T03:07:15.844Z,3.17
2023-04-25T03:09:43.992Z,2.88
2023-04-25T03:12:12.199Z,2.80
2023-04-25T03:14:40.406Z,3.08
2023-04-25T03:17:08.589Z,2.83
2023-04-25T03:19:36.753Z,3.03
2023-04-25T03:22:04.933Z,3.40
2023-04-25T03:24:34.472Z,3.50
2023-04-25T03:27:02.853Z,3.50
2023-04-25T03:29:31.096Z,3.25
2023-04-25T03:31:59.343Z,2.90
2023-04-25T03:34:29.054Z,3.30
2023-04-25T03:36:57.300Z,3.25
2023-04-25T03:39:25.701Z,3.20
2023-04-25T03:41:55.296Z,3.03
2023-04-25T03:44:23.527Z,3.10
2023-04-25T03:46:51.750Z,3.58
2023-04-25T03:49:20.091Z,3.45
2023-04-25T03:51:48.355Z,3.60
2023-04-25T03:54:16.630Z,3.22
2023-04-25T03:56:44.852Z,3.50
2023-04-25T03:59:14.580Z,3.25
2023-04-25T04:01:42.828Z,3.20
2023-04-25T04:04:11.317Z,3.67
2023-04-25T04:06:39.832Z,3.67
2023-04-25T04:09:10.976Z,3.78
2023-04-25T04:11:39.509Z,3.50
2023-04-25T04:14:07.806Z,2.85
2023-04-25T04:16:37.479Z,3.05
2023-04-25T04:19:06.351Z,3.50
2023-04-25T04:21:34.569Z,2.80
2023-04-25T04:24:02.823Z,3.30
2023-04-25T04:26:33.101Z,3.03
2023-04-25T04:29:01.348Z,3.20
2023-04-25T04:31:29.584Z,3.15
2023-04-25T04:33:59.466Z,3.33
2023-04-25T04:36:27.771Z,3.00
2023-04-25T04:38:57.478Z,3.17
2023-04-25T04:41:25.747Z,3.10
2023-04-25T04:43:54.312Z,3.53
2023-04-25T04:46:22.723Z,3.05
2023-04-25T04:48:51.092Z,3.20
2023-04-25T04:51:21.760Z,3.58
2023-04-25T04:53:50.293Z,3.03
2023-04-25T04:56:19.185Z,3.17
2023-04-25T04:58:50.119Z,2.90
2023-04-25T05:01:18.461Z,2.97
2023-04-25T05:03:46.970Z,2.45
2023-04-25T05:06:15.300Z,2.55
2023-04-25T05:08:44.943Z,2.55
2023-04-25T05:11:13.418Z,2.47
2023-04-25T05:13:41.708Z,2.67
2023-04-25T05:16:10.065Z,2.30
2023-04-25T05:18:38.407Z,2.30
2023-04-25T05:21:06.959Z,2.78
2023-04-25T05:23:35.784Z,3.08
2023-04-25T05:26:05.608Z,5.78
2023-04-25T05:28:33.860Z,4.82
2023-04-25T05:31:02.203Z,4.70
2023-04-25T05:33:30.407Z,7.07
2023-04-25T05:35:58.653Z,4.25
2023-04-25T05:38:27.005Z,3.92
2023-04-25T05:40:55.295Z,3.88
2023-04-25T05:43:24.967Z,4.13
2023-04-25T05:45:53.251Z,3.80
2023-04-25T05:48:21.429Z,3.67
2023-04-25T05:50:49.711Z,3.08
2023-04-25T05:53:18.343Z,2.97
2023-04-25T05:55:46.654Z,3.28
2023-04-25T05:58:15.021Z,2.90
2023-04-25T06:00:44.599Z,3.10
2023-04-25T06:03:13.364Z,2.83
2023-04-25T06:05:41.717Z,2.53
2023-04-25T06:08:09.927Z,2.70
2023-04-25T06:10:38.410Z,2.28
2023-04-25T06:13:07.367Z,2.60
2023-04-25T06:15:35.997Z,2.28
2023-04-25T06:18:05.758Z,2.20
2023-04-25T06:20:33.905Z,2.50
2023-04-25T06:23:02.065Z,2.15
2023-04-25T06:25:30.233Z,2.10
2023-04-25T06:27:58.388Z,2.03
2023-04-25T06:30:26.994Z,4.68
2023-04-25T06:32:55.273Z,2.00
2023-04-25T06:35:24.864Z,2.10
2023-04-25T06:37:53.003Z,4.22
2023-04-25T06:40:21.242Z,1.77
2023-04-25T06:42:49.393Z,1.67
2023-04-25T06:45:17.682Z,1.80
2023-04-25T06:47:45.983Z,1.92
2023-04-25T06:50:14.226Z,1.75
2023-04-25T06:52:43.757Z,1.95
2023-04-25T06:55:12.032Z,2.00
2023-04-25T06:57:40.212Z,1.85
2023-04-25T07:00:10.671Z,1.70
2023-04-25T07:02:39.007Z,1.40
2023-04-25T07:05:07.649Z,1.23
2023-04-25T07:07:35.826Z,1.65
2023-04-25T07:10:06.431Z,1.65
2023-04-25T07:12:34.671Z,1.20
2023-04-25T07:15:06.874Z,1.00
2023-04-25T07:17:35.996Z,1.27
2023-04-25T07:20:04.902Z,1.10
2023-04-25T07:22:33.087Z,1.10
2023-04-25T07:25:01.244Z,1.10
2023-04-25T07:27:30.789Z,1.30
2023-04-25T07:29:59.171Z,1.10
2023-04-25T07:32:27.822Z,1.02
2023-04-25T07:34:56.062Z,0.80
2023-04-25T07:37:25.175Z,1.30
2023-04-25T07:39:53.361Z,1.30
2023-04-25T07:42:22.247Z,1.40
2023-04-25T07:44:52.746Z,1.10
2023-04-25T07:47:21.294Z,1.10
2023-04-25T07:49:49.557Z,1.40
2023-04-25T07:52:17.841Z,1.23
2023-04-25T07:54:46.345Z,1.00
2023-04-25T07:57:15.167Z,1.10
2023-04-25T07:59:43.333Z,1.05
2023-04-25T08:02:12.926Z,0.85
2023-04-25T08:04:41.651Z,1.15
2023-04-25T08:07:10.661Z,0.80
2023-04-25T08:09:38.863Z,1.48
2023-04-25T08:12:07.525Z,1.10
2023-04-25T08:14:38.335Z,0.90
2023-04-25T08:17:06.823Z,1.15
2023-04-25T08:19:36.490Z,1.08
2023-04-25T08:22:04.717Z,1.23
2023-04-25T08:24:32.898Z,1.33
2023-04-25T08:27:01.707Z,1.27
2023-04-25T08:29:29.862Z,1.30
2023-04-25T08:31:58.056Z,1.48
2023-04-25T08:34:26.561Z,1.33
2023-04-25T08:36:56.157Z,2.25
2023-04-25T08:39:24.317Z,1.52
2023-04-25T08:41:53.738Z,1.70
2023-04-25T08:44:22.992Z,1.67
2023-04-25T08:46:51.990Z,1.77
2023-04-25T08:49:20.785Z,1.60
2023-04-25T08:51:50.869Z,1.55
2023-04-25T08:54:35.175Z,1.75
2023-04-25T08:57:06.355Z,1.85
2023-04-25T08:59:36.574Z,2.38
2023-04-25T09:02:05.814Z,1.90
2023-04-25T09:04:34.217Z,1.45
2023-04-25T09:07:02.453Z,1.35
2023-04-25T09:09:32.308Z,1.50
2023-04-25T09:12:02.665Z,1.58
2023-04-25T09:14:30.977Z,1.65
2023-04-25T09:17:01.449Z,1.80
2023-04-25T09:22:03.701Z,1.42
2023-04-25T09:24:35.678Z,2.20
2023-04-25T09:27:06.787Z,2.20
2023-04-25T09:29:36.106Z,2.15
2023-04-25T09:32:28.328Z,2.22
2023-04-25T09:34:57.835Z,2.10
2023-04-25T09:37:27.206Z,1.60
2023-04-25T09:39:58.406Z,1.60
2023-04-25T09:42:27.767Z,1.80
2023-04-25T09:44:57.765Z,1.20
2023-04-25T09:47:27.797Z,1.52
2023-04-25T09:49:57.196Z,1.38
2023-04-25T09:52:26.650Z,0.77
2023-04-25T09:54:56.891Z,0.90
2023-04-25T09:57:26.996Z,0.80
2023-04-25T09:59:57.393Z,1.30
2023-04-25T10:02:27.063Z,1.48
2023-04-25T10:04:57.204Z,1.00
2023-04-25T10:07:29.276Z,1.40
2023-04-25T10:10:03.061Z,1.00
2023-04-25T10:12:32.075Z,1.33
2023-04-25T10:15:01.434Z,1.30
2023-04-25T10:17:30.062Z,1.67
2023-04-25T10:19:58.611Z,1.20
2023-04-25T10:22:33.143Z,1.50
2023-04-25T10:25:05.010Z,1.30
2023-04-25T10:27:33.775Z,1.50
2023-04-25T10:30:07.279Z,1.42
2023-04-25T10:32:35.758Z,1.48
2023-04-25T10:35:14.974Z,1.42
2023-04-25T10:38:05.800Z,1.48
2023-04-25T10:40:35.781Z,1.30
2023-04-25T10:43:38.637Z,1.30
2023-04-25T10:46:19.621Z,1.40
2023-04-25T10:48:50.307Z,1.05
2023-04-25T10:51:24.040Z,0.90
2023-04-25T10:54:02.838Z,0.50
2023-04-25T10:56:33.537Z,0.50
2023-04-25T10:59:10.977Z,0.60
2023-04-25T11:01:41.142Z,0.60
2023-04-25T11:04:21.436Z,0.60
2023-04-25T11:07:07.454Z,0.68
2023-04-25T11:09:36.824Z,0.73
2023-04-25T11:12:09.209Z,0.73
2023-04-25T11:14:38.072Z,0.82
2023-04-25T11:17:06.858Z,0.70
2023-04-25T11:19:35.134Z,0.95
2023-04-25T11:22:04.492Z,0.82
2023-04-25T11:24:33.730Z,0.77
2023-04-25T11:27:03.811Z,0.80
2023-04-25T11:29:35.343Z,0.98
2023-04-25T11:34:33.973Z,0.80
2023-04-25T11:37:03.468Z,0.63
2023-04-25T11:39:32.325Z,0.93
2023-04-25T11:42:02.325Z,1.10
2023-04-25T11:44:33.394Z,1.00
2023-04-25T11:47:01.555Z,1.10
2023-04-25T11:49:33.453Z,1.10
2023-04-25T11:52:01.659Z,1.00
2023-04-25T11:54:29.824Z,1.02
2023-04-25T11:56:58.327Z,1.00
2023-04-25T11:59:27.840Z,0.90
2023-04-25T12:01:58.832Z,0.90
2023-04-25T12:04:27.732Z,0.90
2023-04-25T12:06:57.462Z,0.73
2023-04-25T12:09:31.428Z,1.27
2023-04-25T12:12:03.880Z,1.45
2023-04-25T12:14:34.513Z,1.00
2023-04-25T12:17:06.294Z,0.60
2023-04-25T12:19:36.163Z,0.30
2023-04-25T12:22:05.170Z,0.20
2023-04-25T12:24:39.125Z,0.35
2023-04-25T12:27:09.412Z,0.40
2023-04-25T12:29:49.375Z,0.50
2023-04-25T12:32:19.685Z,0.40
2023-04-25T12:34:48.162Z,0.50
2023-04-25T12:37:16.751Z,0.43
2023-04-25T12:39:44.980Z,0.50
2023-04-25T12:42:13.847Z,0.40
2023-04-25T12:44:42.639Z,0.60
2023-04-25T12:47:11.096Z,0.60
2023-04-25T12:49:40.742Z,0.63
2023-04-25T12:52:08.927Z,0.47
2023-04-25T12:54:37.164Z,0.60
2023-04-25T12:57:05.849Z,0.47
2023-04-25T12:59:34.057Z,0.60
2023-04-25T13:02:02.245Z,0.75
2023-04-25T13:04:30.919Z,0.40
2023-04-25T13:07:01.039Z,0.50
2023-04-25T13:09:29.293Z,0.43
2023-04-25T13:11:59.361Z,0.40
2023-04-25T13:14:27.742Z,0.40
2023-04-25T13:16:56.338Z,0.40
2023-04-25T13:19:24.617Z,0.68
2023-04-25T13:21:52.823Z,0.60
2023-04-25T13:24:22.443Z,0.70
2023-04-25T13:26:50.647Z,0.50
2023-04-25T13:29:18.802Z,0.70
2023-04-25T13:31:47.110Z,0.50
2023-04-25T13:34:15.804Z,0.68
2023-04-25T13:36:44.352Z,0.30
2023-04-25T13:39:13.265Z,0.35
2023-04-25T13:41:42.855Z,0.30
2023-04-25T13:44:11.501Z,0.17
2023-04-25T13:46:47.083Z,0.30
2023-04-25T13:49:16.558Z,0.30
2023-04-25T13:51:44.916Z,0.55
2023-04-25T13:54:13.286Z,0.95
2023-04-25T13:56:43.698Z,0.90
2023-04-25T13:59:12.299Z,1.08
2023-04-25T14:01:40.633Z,0.70
2023-04-25T14:04:08.890Z,0.73
2023-04-25T14:06:37.759Z,0.80
2023-04-25T14:09:07.786Z,0.70
2023-04-25T14:11:36.241Z,0.75
2023-04-25T14:14:06.483Z,0.70
2023-04-25T14:16:36.534Z,0.52
2023-04-25T14:19:04.798Z,0.50
2023-04-25T14:21:34.593Z,0.57
2023-04-25T14:24:02.841Z,0.50
2023-04-25T14:26:31.249Z,0.50
2023-04-25T14:28:59.469Z,0.50
2023-04-25T14:31:29.295Z,0.60
2023-04-25T14:33:59.330Z,0.40
2023-04-25T14:36:28.532Z,0.38
2023-04-25T14:38:57.053Z,0.40
2023-04-25T14:41:26.000Z,0.50
2023-04-25T14:43:54.928Z,0.60
2023-04-25T14:46:24.392Z,0.60
2023-04-25T14:48:54.462Z,0.55
2023-04-25T14:51:22.697Z,0.52
2023-04-25T14:53:51.655Z,0.50
2023-04-25T14:56:20.254Z,0.70
2023-04-25T14:58:48.397Z,0.88
2023-04-25T15:01:16.913Z,0.80
2023-04-25T15:03:45.599Z,0.77
2023-04-25T15:06:15.490Z,0.50
2023-04-25T15:08:43.689Z,0.50
2023-04-25T15:11:13.132Z,0.90
2023-04-25T15:13:41.377Z,1.00
2023-04-25T15:16:09.618Z,0.80
2023-04-25T15:18:37.912Z,1.00
2023-04-25T15:21:06.588Z,1.00
2023-04-25T15:23:36.197Z,0.93
2023-04-25T15:26:04.413Z,0.82
2023-04-25T15:28:32.573Z,0.80
2023-04-25T15:31:00.769Z,0.70
2023-04-25T15:33:28.971Z,0.80
2023-04-25T15:35:58.703Z,0.60
2023-04-25T15:38:26.864Z,0.75
2023-04-25T15:40:56.492Z,0.60
2023-04-25T15:43:24.764Z,0.68
2023-04-25T15:45:53.030Z,0.60
2023-04-25T15:48:21.316Z,0.80
2023-04-25T15:50:49.677Z,0.80
2023-04-25T15:53:17.836Z,0.90
2023-04-25T15:55:46.023Z,1.00
2023-04-25T15:58:15.561Z,1.20
2023-04-25T16:00:43.786Z,1.00
2023-04-25T16:03:12.152Z,1.00
2023-04-25T16:05:41.028Z,0.80
2023-04-25T16:08:09.246Z,1.00
2023-04-25T16:10:38.425Z,1.00
2023-04-25T16:13:06.623Z,0.77
2023-04-25T16:15:36.336Z,1.02
2023-04-25T16:18:04.824Z,1.10
2023-04-25T16:20:33.186Z,0.70
2023-04-25T16:23:01.546Z,0.93
2023-04-25T16:25:29.743Z,0.80
2023-04-25T16:27:57.953Z,0.88
2023-04-25T16:30:26.411Z,0.90
2023-04-25T16:32:57.337Z,1.00
2023-04-25T16:35:26.237Z,0.70
2023-04-25T16:37:54.811Z,1.20
2023-04-25T16:40:23.166Z,1.30
2023-04-25T16:42:51.312Z,0.90
2023-04-25T16:45:20.390Z,1.10
2023-04-25T16:47:48.660Z,1.00
2023-04-25T16:50:20.199Z,1.20
2023-04-25T16:52:48.373Z,1.23
2023-04-25T16:55:16.541Z,1.00
2023-04-25T16:57:44.818Z,0.98
2023-04-25T17:00:14.127Z,0.90
2023-04-25T17:02:42.504Z,0.85
2023-04-25T17:05:10.883Z,0.73
2023-04-25T17:07:40.493Z,0.82
2023-04-25T17:10:09.530Z,1.08
2023-04-25T17:12:37.716Z,1.20
2023-04-25T17:15:07.027Z,1.30
2023-04-25T17:17:35.209Z,1.08
2023-04-25T17:20:06.029Z,1.05
2023-04-25T17:22:35.250Z,0.97
2023-04-25T17:25:05.427Z,1.10
2023-04-25T17:27:33.671Z,1.20
2023-04-25T17:30:03.638Z,0.90
2023-04-25T17:32:32.037Z,1.10
2023-04-25T17:35:00.369Z,1.10
2023-04-25T17:37:28.903Z,0.80
2023-04-25T17:39:57.530Z,0.80
2023-04-25T17:42:28.142Z,0.98
2023-04-25T17:44:56.404Z,0.82
2023-04-25T17:47:24.820Z,0.90
2023-04-25T17:49:53.096Z,1.10
2023-04-25T17:52:22.026Z,0.70
2023-04-25T17:54:50.160Z,0.90
2023-04-25T17:57:18.508Z,0.80
2023-04-25T17:59:48.075Z,1.00
2023-04-25T18:02:17.247Z,0.85
2023-04-25T18:04:45.714Z,0.80
2023-04-25T18:07:13.943Z,0.63
2023-04-25T18:09:42.117Z,0.80
2023-04-25T18:12:10.293Z,0.90
2023-04-25T18:14:38.501Z,0.70
2023-04-25T18:17:08.993Z,1.17
2023-04-25T18:19:37.252Z,0.98
2023-04-25T18:22:05.779Z,1.15
2023-04-25T18:24:34.044Z,0.90
2023-04-25T18:27:05.871Z,0.93
2023-04-25T18:29:34.361Z,1.50
2023-04-25T18:32:05.054Z,1.50
2023-04-25T18:34:35.429Z,0.80
2023-04-25T18:37:03.762Z,0.70
2023-04-25T18:39:31.959Z,1.25
2023-04-25T18:42:05.575Z,1.45
2023-04-25T18:44:39.446Z,0.77
2023-04-25T18:47:07.907Z,1.25
2023-04-25T18:49:38.635Z,1.40
2023-04-25T18:52:08.621Z,1.20
2023-04-25T18:54:37.111Z,1.10
2023-04-25T18:57:06.294Z,0.95
2023-04-25T18:59:34.843Z,1.30
2023-04-25T19:02:04.477Z,0.98
2023-04-25T19:04:32.830Z,1.10
2023-04-25T19:07:02.626Z,1.17
2023-04-25T19:09:30.842Z,1.25
2023-04-25T19:11:59.094Z,1.35
2023-04-25T19:14:28.521Z,1.10
2023-04-25T19:16:59.231Z,1.27
2023-04-25T19:19:28.183Z,1.48
2023-04-25T19:21:56.472Z,1.30
2023-04-25T19:24:27.325Z,0.80
2023-04-25T19:26:55.507Z,0.98
2023-04-25T19:29:23.740Z,1.08
2023-04-25T19:31:51.990Z,1.10
2023-04-25T19:34:20.286Z,1.40
2023-04-25T19:36:48.954Z,1.20
2023-04-25T19:39:17.156Z,1.00
2023-04-25T19:41:46.738Z,1.10
2023-04-25T19:44:14.926Z,0.60
2023-04-25T19:46:45.948Z,0.75
2023-04-25T19:49:14.286Z,0.70
2023-04-25T19:51:42.617Z,0.70
2023-04-25T19:54:10.787Z,0.60
2023-04-25T19:56:39.383Z,0.60
2023-04-25T19:59:09.122Z,0.90
2023-04-25T20:01:37.371Z,0.98
2023-04-25T20:04:06.052Z,0.90
2023-04-25T20:06:34.264Z,0.90
2023-04-25T20:09:03.941Z,0.90
2023-04-25T20:11:32.128Z,0.65
2023-04-25T20:14:00.255Z,0.57
2023-04-25T20:16:29.903Z,0.90
2023-04-25T20:18:58.052Z,0.80
2023-04-25T20:21:27.450Z,0.80
2023-04-25T20:23:55.589Z,1.00
2023-04-25T20:26:23.768Z,0.70
2023-04-25T20:28:52.235Z,0.95
2023-04-25T20:31:21.283Z,0.75
2023-04-25T20:33:50.885Z,0.82
2023-04-25T20:36:19.818Z,0.90
2023-04-25T20:38:48.042Z,1.20
2023-04-25T20:41:16.301Z,1.40
2023-04-25T20:43:44.531Z,2.05
2023-04-25T20:46:13.458Z,1.33
2023-04-25T20:48:42.032Z,1.30
2023-04-25T20:51:12.095Z,1.60
2023-04-25T20:53:40.306Z,1.00
2023-04-25T20:56:10.895Z,1.50
2023-04-25T20:58:39.074Z,1.30
2023-04-25T21:01:08.218Z,2.00
2023-04-25T21:03:36.865Z,2.33
2023-04-25T21:06:05.832Z,1.60
2023-04-25T21:08:35.519Z,2.53
2023-04-25T21:11:04.168Z,1.08
2023-04-25T21:13:32.378Z,0.90
2023-04-25T21:16:00.878Z,1.05
2023-04-25T21:18:31.852Z,1.10
2023-04-25T21:21:00.141Z,1.08
2023-04-25T21:23:28.316Z,1.10
2023-04-25T21:25:57.968Z,1.30
2023-04-25T21:28:26.307Z,1.60
2023-04-25T21:30:54.588Z,1.80
2023-04-25T21:33:22.834Z,1.42
2023-04-25T21:35:51.030Z,1.25
2023-04-25T21:38:19.172Z,1.48
2023-04-25T21:40:47.604Z,1.10
2023-04-25T21:43:17.187Z,1.08
2023-04-25T21:48:19.841Z,1.15
2023-04-25T21:50:48.475Z,0.98
2023-04-25T21:53:16.695Z,0.98
2023-04-25T21:55:44.935Z,0.90
2023-04-25T21:58:13.316Z,1.00
2023-04-25T22:00:44.025Z,1.05
2023-04-25T22:03:14.682Z,0.87
2023-04-25T22:05:44.276Z,0.80
2023-04-25T22:08:12.656Z,0.80
2023-04-25T22:10:42.019Z,1.00
2023-04-25T22:13:10.274Z,0.90
2023-04-25T22:15:38.467Z,0.85
2023-04-25T22:18:08.777Z,0.93
2023-04-25T22:20:38.953Z,0.93
2023-04-25T22:23:07.115Z,1.00
2023-04-25T22:25:35.537Z,1.02
2023-04-25T22:28:03.687Z,1.00
2023-04-25T22:30:32.223Z,1.10
2023-04-25T22:33:00.494Z,0.75
2023-04-25T22:35:30.117Z,0.85
2023-04-25T22:37:58.283Z,0.80
2023-04-25T22:40:26.531Z,1.00
2023-04-25T22:42:54.725Z,0.75
2023-04-25T22:45:23.044Z,1.00
2023-04-25T22:47:51.376Z,1.10
2023-04-25T22:50:20.309Z,0.95
2023-04-25T22:52:49.906Z,0.85
2023-04-25T22:55:18.056Z,1.00
2023-04-25T22:57:46.717Z,0.90
2023-04-25T23:00:20.165Z,0.85
2023-04-25T23:02:49.797Z,0.95
2023-04-25T23:05:18.464Z,1.30
2023-04-25T23:07:46.704Z,1.00
2023-04-25T23:10:16.719Z,1.00
2023-04-25T23:12:44.906Z,1.05
2023-04-25T23:15:13.730Z,1.10
2023-04-25T23:17:42.773Z,1.10
2023-04-25T23:20:12.228Z,1.00
2023-04-25T23:22:40.759Z,1.00
2023-04-25T23:25:10.530Z,1.00
2023-04-25T23:27:40.131Z,1.00
2023-04-25T23:30:10.138Z,1.10
2023-04-25T23:32:38.984Z,1.10
2023-04-25T23:35:08.265Z,1.02
2023-04-25T23:37:37.214Z,1.10
2023-04-25T23:40:09.912Z,1.40
2023-04-25T23:42:40.919Z,1.52
2023-04-25T23:45:10.430Z,1.42
2023-04-25T23:47:38.796Z,1.33
2023-04-25T23:50:08.481Z,1.73
2023-04-25T23:52:36.740Z,1.70
2023-04-25T23:55:06.215Z,1.88
2023-04-25T23:57:34.597Z,1.80
